Schneifelwetter: Wetterstation Hallschlag, 537 m . NN
Wetterdaten: Freitag, 30.07.2010
Datum Zeit Temp. A. Feuchte A. Luftdruck Regen Wind Richtung Richtung Sonnenschein Helligkeit T Regen Taupunkt Windchill
30.07.2010 00:00 11,4 C 90 % 1013 hPa 0,0 l/m 0,1 km/h (0 Bft) W 265 0 min 0 lux 0,00 min 9,8 C 11,4 C
30.07.2010 00:15 11,4 C 90 % 1013 hPa 0,0 l/m 0,3 km/h (0 Bft) W 270 0 min 0 lux 0,00 min 9,8 C 11,4 C
30.07.2010 00:30 11,5 C 90 % 1013 hPa 0,0 l/m 6,5 km/h (2 Bft) W 270 0 min 0 lux 0,00 min 9,9 C 11,5 C
30.07.2010 00:45 11,5 C 91 % 1013 hPa 0,0 l/m 8,2 km/h (2 Bft) W 265 0 min 0 lux 0,00 min 10,1 C 10,3 C
30.07.2010 01:00 11,5 C 90 % 1013 hPa 0,0 l/m 9,2 km/h (2 Bft) W 265 0 min 0 lux 0,00 min 9,9 C 9,7 C
30.07.2010 01:15 11,5 C 91 % 1013 hPa 0,0 l/m 0,0 km/h (0 Bft) W 265 0 min 0 lux 0,00 min 10,1 C 11,5 C
30.07.2010 01:30 11,5 C 91 % 1013 hPa 0,0 l/m 9,0 km/h (2 Bft) W 265 0 min 0 lux 0,00 min 10,1 C 9,8 C
30.07.2010 01:45 11,5 C 91 % 1013 hPa 0,0 l/m 3,5 km/h (1 Bft) W 265 0 min 0 lux 0,00 min 10,1 C 11,5 C
30.07.2010 02:00 11,3 C 91 % 1013 hPa 0,0 l/m 0,0 km/h (0 Bft) W 265 0 min 0 lux 0,00 min 9,9 C 11,3 C
30.07.2010 02:15 11,3 C 91 % 1013 hPa 0,0 l/m 5,0 km/h (1 Bft) W 265 0 min 0 lux 0,00 min 9,9 C 11,3 C
30.07.2010 02:30 11,5 C 92 % 1013 hPa 0,0 l/m 9,4 km/h (2 Bft) W 265 0 min 0 lux 0,00 min 10,2 C 9,6 C
30.07.2010 02:45 11,6 C 92 % 1013 hPa 0,0 l/m 10,8 km/h (2 Bft) W 265 0 min 0 lux 0,00 min 10,3 C 8,9 C
30.07.2010 03:00 11,5 C 92 % 1013 hPa 0,0 l/m 6,5 km/h (2 Bft) W 265 0 min 0 lux 0,00 min 10,2 C 11,5 C
30.07.2010 03:15 11,4 C 93 % 1013 hPa 0,0 l/m 5,4 km/h (1 Bft) W 265 0 min 0 lux 0,00 min 10,3 C 11,4 C
30.07.2010 03:30 11,4 C 93 % 1013 hPa 0,0 l/m 6,8 km/h (2 Bft) W 265 0 min 0 lux 0,00 min 10,3 C 11,1 C
30.07.2010 03:45 11,5 C 93 % 1013 hPa 0,0 l/m 9,4 km/h (2 Bft) W 265 0 min 0 lux 0,00 min 10,4 C 9,6 C
30.07.2010 04:00 11,4 C 92 % 1013 hPa 0,0 l/m 13,2 km/h (3 Bft) W22.5 280 0 min 0 lux 0,00 min 10,1 C 7,6 C
30.07.2010 04:15 11,4 C 92 % 1013 hPa 0,0 l/m 5,0 km/h (1 Bft) W 275 0 min 0 lux 0,00 min 10,1 C 11,4 C
30.07.2010 04:30 11,5 C 93 % 1013 hPa 0,0 l/m 10,0 km/h (2 Bft) W22.5 260 0 min 0 lux 0,00 min 10,4 C 9,3 C
30.07.2010 04:45 11,4 C 93 % 1013 hPa 0,0 l/m 11,1 km/h (2 Bft) W 265 0 min 0 lux 0,00 min 10,3 C 8,6 C
30.07.2010 05:00 11,3 C 93 % 1013 hPa 0,0 l/m 15,5 km/h (3 Bft) W22.5 265 0 min 0 lux 0,00 min 10,2 C 6,5 C
30.07.2010 05:15 11,2 C 93 % 1013 hPa 0,0 l/m 12,1 km/h (2 Bft) W22.5 260 0 min 0 lux 0,00 min 10,1 C 7,8 C
30.07.2010 05:30 11,2 C 93 % 1013 hPa 0,0 l/m 8,1 km/h (2 Bft) W 280 0 min 0 lux 0,00 min 10,1 C 10,0 C
30.07.2010 05:45 11,2 C 92 % 1013 hPa 0,0 l/m 11,8 km/h (2 Bft) W-SW 255 0 min 49 lux 0,00 min 9,9 C 8,0 C
30.07.2010 06:00 11,0 C 92 % 1013 hPa 0,0 l/m 1,6 km/h (1 Bft) W-SW 250 0 min 232 lux 0,00 min 9,8 C 11,0 C
30.07.2010 06:15 10,9 C 92 % 1013 hPa 0,0 l/m 1,4 km/h (1 Bft) W-SW 250 0 min 1,46 klux 0,00 min 9,7 C 10,9 C
30.07.2010 06:30 11,0 C 91 % 1013 hPa 0,0 l/m 9,2 km/h (2 Bft) W-NW45 300 0 min 5,61 klux 0,00 min 9,6 C 9,2 C
30.07.2010 06:45 11,0 C 90 % 1013 hPa 0,0 l/m 2,5 km/h (1 Bft) NW 325 0 min 6,74 klux 0,00 min 9,4 C 11,0 C
30.07.2010 07:00 11,0 C 91 % 1013 hPa 0,0 l/m 4,0 km/h (1 Bft) NW 325 0 min 3,77 klux 0,00 min 9,6 C 11,0 C
30.07.2010 07:15 11,1 C 90 % 1013 hPa 0,0 l/m 0,0 km/h (0 Bft) NW 325 0 min 5,39 klux 0,00 min 9,5 C 11,1 C
30.07.2010 07:30 11,4 C 91 % 1013 hPa 0,0 l/m 0,0 km/h (0 Bft) NW 325 0 min 6,60 klux 0,00 min 10,0 C 11,4 C
30.07.2010 07:45 11,5 C 91 % 1013 hPa 0,0 l/m 4,8 km/h (1 Bft) NW 325 0 min 9,1 klux 0,00 min 10,1 C 11,5 C
30.07.2010 08:00 11,9 C 91 % 1014 hPa 0,0 l/m 8,9 km/h (2 Bft) W-NW45 295 0 min 10,4 klux 0,00 min 10,5 C 10,3 C
30.07.2010 08:16 12,5 C 90 % 1014 hPa 0,0 l/m 8,9 km/h (2 Bft) W 270 0 min 14,4 klux 0,00 min 10,9 C 11,0 C
30.07.2010 08:30 12,8 C 89 % 1014 hPa 0,0 l/m 8,3 km/h (2 Bft) W 270 0 min 14,8 klux 0,00 min 11,0 C 11,6 C
30.07.2010 08:45 13,0 C 89 % 1014 hPa 0,0 l/m 3,5 km/h (1 Bft) W 270 0 min 26,6 klux 0,00 min 11,2 C 13,0 C
30.07.2010 09:00 13,7 C 87 % 1014 hPa 0,0 l/m 9,2 km/h (2 Bft) W22.5 275 15 min 53,5 klux 0,00 min 11,6 C 12,1 C
30.07.2010 09:15 14,6 C 83 % 1014 hPa 0,0 l/m 14,4 km/h (3 Bft) W 265 15 min 52,4 klux 0,00 min 11,7 C 10,9 C
30.07.2010 09:30 15,3 C 82 % 1014 hPa 0,0 l/m 12,0 km/h (2 Bft) W22.5 275 15 min 62,6 klux 0,00 min 12,2 C 12,6 C
30.07.2010 09:46 16,5 C 76 % 1014 hPa 0,0 l/m 12,0 km/h (2 Bft) W22.5 270 16 min 64,6 klux 0,00 min 12,3 C 14,0 C
30.07.2010 10:01 17,8 C 74 % 1014 hPa 0,0 l/m 10,3 km/h (2 Bft) W 270 15 min 74,0 klux 0,00 min 13,1 C 16,1 C
30.07.2010 10:15 18,4 C 69 % 1014 hPa 0,0 l/m 12,1 km/h (2 Bft) W 265 14 min 81,2 klux 0,00 min 12,6 C 16,2 C
30.07.2010 10:30 17,5 C 70 % 1014 hPa 0,0 l/m 8,3 km/h (2 Bft) W 270 15 min 83,5 klux 0,00 min 12,0 C 16,6 C
30.07.2010 10:45 18,0 C 68 % 1014 hPa 0,0 l/m 11,3 km/h (2 Bft) W 265 0 min 30,1 klux 0,00 min 12,0 C 16,0 C
30.07.2010 11:00 17,1 C 70 % 1014 hPa 0,0 l/m 7,9 km/h (2 Bft) W 265 0 min 20,2 klux 0,00 min 11,6 C 16,4 C
30.07.2010 11:15 16,1 C 71 % 1015 hPa 0,0 l/m 11,4 km/h (2 Bft) W 265 0 min 18,7 klux 0,00 min 10,8 C 13,8 C
30.07.2010 11:31 15,6 C 70 % 1015 hPa 0,0 l/m 11,4 km/h (2 Bft) W 275 0 min 22,2 klux 0,00 min 10,1 C 13,2 C
30.07.2010 11:45 15,6 C 73 % 1015 hPa 0,0 l/m 10,8 km/h (2 Bft) W-NW22.5 290 0 min 27,7 klux 0,00 min 10,8 C 13,4 C
30.07.2010 12:00 16,0 C 72 % 1015 hPa 0,0 l/m 12,5 km/h (3 Bft) W 265 0 min 33,6 klux 0,00 min 11,0 C 13,2 C
30.07.2010 12:15 16,7 C 72 % 1014 hPa 0,0 l/m 6,1 km/h (2 Bft) W-NW67.5 290 0 min 41,6 klux 0,00 min 11,6 C 16,7 C
30.07.2010 12:30 17,9 C 69 % 1014 hPa 0,0 l/m 8,7 km/h (2 Bft) W 265 15 min 56,8 klux 0,00 min 12,1 C 16,8 C
30.07.2010 12:45 18,8 C 67 % 1015 hPa 0,0 l/m 9,2 km/h (2 Bft) W 260 15 min 66,3 klux 0,00 min 12,5 C 17,6 C
30.07.2010 13:00 19,1 C 66 % 1015 hPa 0,0 l/m 14,3 km/h (3 Bft) W22.5 260 15 min 57,2 klux 0,00 min 12,6 C 16,3 C
30.07.2010 13:16 19,5 C 67 % 1015 hPa 0,0 l/m 11,5 km/h (2 Bft) W-SW22.5 250 0 min 45,0 klux 0,00 min 13,2 C 17,6 C
30.07.2010 13:30 19,7 C 65 % 1015 hPa 0,0 l/m 16,0 km/h (3 Bft) W-SW45 240 0 min 43,0 klux 0,00 min 12,9 C 16,6 C
30.07.2010 13:45 19,8 C 65 % 1015 hPa 0,0 l/m 11,1 km/h (2 Bft) W-SW22.5 255 0 min 49,1 klux 0,00 min 13,0 C 18,1 C
30.07.2010 14:00 20,0 C 63 % 1015 hPa 0,0 l/m 14,0 km/h (3 Bft) W-SW22.5 240 15 min 52,6 klux 0,00 min 12,7 C 17,5 C
30.07.2010 14:15 20,4 C 61 % 1015 hPa 0,0 l/m 11,2 km/h (2 Bft) W-SW22.5 255 15 min 57,3 klux 0,00 min 12,6 C 18,7 C
30.07.2010 14:30 20,6 C 59 % 1015 hPa 0,0 l/m 13,6 km/h (3 Bft) SW45 230 15 min 72,0 klux 0,00 min 12,3 C 18,3 C
30.07.2010 14:46 20,9 C 59 % 1015 hPa 0,0 l/m 17,3 km/h (3 Bft) W-SW22.5 250 16 min 72,4 klux 0,00 min 12,6 C 17,9 C
30.07.2010 15:01 20,5 C 59 % 1015 hPa 0,0 l/m 17,5 km/h (3 Bft) W22.5 260 15 min 109 klux 0,00 min 12,2 C 17,3 C
30.07.2010 15:15 20,7 C 59 % 1015 hPa 0,0 l/m 20,1 km/h (4 Bft) W-SW45 245 14 min 114 klux 0,00 min 12,4 C 17,1 C
30.07.2010 15:30 19,9 C 60 % 1015 hPa 0,0 l/m 22,3 km/h (4 Bft) W22.5 275 0 min 46,8 klux 0,00 min 11,9 C 15,7 C
30.07.2010 15:45 19,4 C 62 % 1015 hPa 0,0 l/m 18,9 km/h (3 Bft) W22.5 265 0 min 45,8 klux 0,00 min 11,9 C 15,6 C
30.07.2010 16:00 19,6 C 62 % 1015 hPa 0,0 l/m 18,5 km/h (3 Bft) W22.5 270 0 min 41,0 klux 0,00 min 12,1 C 16,0 C
30.07.2010 16:15 19,4 C 62 % 1015 hPa 0,0 l/m 12,8 km/h (3 Bft) W22.5 265 0 min 34,0 klux 0,00 min 11,9 C 17,1 C
30.07.2010 16:31 19,7 C 62 % 1015 hPa 0,0 l/m 14,1 km/h (3 Bft) W-SW 250 0 min 32,2 klux 0,00 min 12,2 C 17,1 C
30.07.2010 16:45 19,9 C 62 % 1015 hPa 0,0 l/m 16,4 km/h (3 Bft) W-SW22.5 255 0 min 38,2 klux 0,00 min 12,4 C 16,8 C
30.07.2010 17:00 20,1 C 61 % 1015 hPa 0,0 l/m 12,7 km/h (3 Bft) W-SW 250 0 min 47,0 klux 0,00 min 12,3 C 18,0 C
30.07.2010 17:15 20,1 C 60 % 1015 hPa 0,0 l/m 12,6 km/h (3 Bft) W22.5 280 15 min 60,0 klux 0,00 min 12,1 C 18,0 C
30.07.2010 17:30 20,6 C 58 % 1015 hPa 0,0 l/m 12,3 km/h (3 Bft) W 260 15 min 69,2 klux 0,00 min 12,0 C 18,6 C
30.07.2010 17:45 20,8 C 57 % 1015 hPa 0,0 l/m 20,2 km/h (4 Bft) W22.5 270 15 min 67,8 klux 0,00 min 12,0 C 17,2 C
30.07.2010 18:00 20,4 C 54 % 1015 hPa 0,0 l/m 11,6 km/h (2 Bft) W-SW45 240 15 min 68,7 klux 0,00 min 10,8 C 18,6 C
30.07.2010 18:16 20,2 C 54 % 1015 hPa 0,0 l/m 9,0 km/h (2 Bft) W-SW 245 16 min 61,4 klux 0,00 min 10,6 C 19,2 C
30.07.2010 18:30 20,2 C 55 % 1015 hPa 0,0 l/m 8,1 km/h (2 Bft) W-SW 240 0 min 48,9 klux 0,00 min 10,9 C 19,5 C
30.07.2010 18:45 20,0 C 55 % 1015 hPa 0,0 l/m 19,3 km/h (3 Bft) W-SW22.5 245 0 min 46,7 klux 0,00 min 10,7 C 16,3 C
30.07.2010 19:00 19,8 C 57 % 1015 hPa 0,0 l/m 18,1 km/h (3 Bft) W-SW22.5 255 0 min 40,0 klux 0,00 min 11,0 C 16,3 C
30.07.2010 19:15 20,1 C 56 % 1015 hPa 0,0 l/m 17,1 km/h (3 Bft) W-SW22.5 255 0 min 35,9 klux 0,00 min 11,0 C 16,9 C
30.07.2010 19:30 20,1 C 57 % 1015 hPa 0,0 l/m 16,0 km/h (3 Bft) W22.5 265 0 min 31,1 klux 0,00 min 11,3 C 17,1 C
30.07.2010 19:46 20,2 C 56 % 1015 hPa 0,0 l/m 16,1 km/h (3 Bft) W-SW22.5 255 0 min 28,3 klux 0,00 min 11,1 C 17,2 C
30.07.2010 20:00 18,7 C 54 % 1015 hPa 0,0 l/m 10,3 km/h (2 Bft) W-SW22.5 250 0 min 9,3 klux 0,00 min 9,2 C 17,1 C
30.07.2010 20:15 16,8 C 56 % 1015 hPa 0,0 l/m 3,6 km/h (1 Bft) W-SW 250 0 min 5,25 klux 0,00 min 8,0 C 16,8 C
30.07.2010 20:30 15,5 C 60 % 1016 hPa 0,0 l/m 5,7 km/h (1 Bft) W-SW 250 0 min 11,9 klux 0,00 min 7,8 C 15,5 C
30.07.2010 20:45 14,6 C 62 % 1015 hPa 0,0 l/m 4,2 km/h (1 Bft) W-SW 250 0 min 5,61 klux 0,00 min 7,4 C 14,6 C
30.07.2010 21:00 13,8 C 64 % 1015 hPa 0,0 l/m 0,0 km/h (0 Bft) W-SW 250 0 min 3,50 klux 0,00 min 7,1 C 13,8 C
30.07.2010 21:15 13,2 C 67 % 1015 hPa 0,0 l/m 0,0 km/h (0 Bft) W-SW 250 0 min 1,72 klux 0,00 min 7,2 C 13,2 C
30.07.2010 21:31 12,4 C 69 % 1016 hPa 0,0 l/m 0,6 km/h (0 Bft) W-SW 250 0 min 673 lux 0,00 min 6,9 C 12,4 C
30.07.2010 21:45 11,7 C 71 % 1016 hPa 0,0 l/m 0,0 km/h (0 Bft) W-SW 250 0 min 180 lux 0,00 min 6,6 C 11,7 C
30.07.2010 22:00 11,1 C 73 % 1016 hPa 0,0 l/m 0,0 km/h (0 Bft) W-SW 250 0 min 30 lux 0,00 min 6,4 C 11,1 C
30.07.2010 22:15 10,5 C 75 % 1016 hPa 0,0 l/m 0,0 km/h (0 Bft) W-SW 250 0 min 6 lux 0,00 min 6,3 C 10,5 C
30.07.2010 22:30 10,0 C 77 % 1016 hPa 0,0 l/m 0,0 km/h (0 Bft) W-SW 250 0 min 0 lux 0,00 min 6,2 C 10,0 C
30.07.2010 22:45 9,5 C 79 % 1016 hPa 0,0 l/m 0,0 km/h (0 Bft) W-SW 250 0 min 0 lux 0,00 min 6,0 C 9,5 C
30.07.2010 23:01 9,0 C 80 % 1016 hPa 0,0 l/m 0,0 km/h (0 Bft) W-SW 250 0 min 0 lux 0,00 min 5,7 C 9,0 C
30.07.2010 23:15 8,7 C 82 % 1016 hPa 0,0 l/m 0,0 km/h (0 Bft) W-SW 250 0 min 0 lux 0,00 min 5,8 C 8,7 C
30.07.2010 23:30 8,4 C 82 % 1016 hPa 0,0 l/m 0,0 km/h (0 Bft) W-SW 250 0 min 0 lux 0,00 min 5,5 C 8,4 C
30.07.2010 23:45 8,0 C 83 % 1016 hPa 0,0 l/m 0,0 km/h (0 Bft) W-SW 250 0 min 0 lux 0,00 min 5,3 C 8,0 C
_ Min-Zeit 23:45 18:00 00:00 - 01:15 - - - - - 23:45 05:00
Minimum _ 8,0 C 54 % 1013 hPa - 0,0 km/h (0 Bft) - - - - - 5,3 C 6,5 C
_ Max-Zeit 14:46 03:15 20:30 00:00 15:30 - - 09:46 15:15 00:00 13:16 18:30
Maximum _ 20,9 C 93 % 1016 hPa 0,0 l/m 22,3 km/h
W (4 Bft)
- - 16 min 114 klux 0,00 min 13,2 C 19,5 C
Durchschnitt _ 14,9 C 76 % 1014 hPa #0,0 l/m 8,8 km/h (2 Bft) W - #5:16 h 25,5 klux #0 min. 10,4 C 13,4 C